VSV722 UATT-UACC
Flight info
| Callsign | VSV722 |
|---|---|
| Flight time | N/A |
| Altitude | 35000 |
| Route | LITBA M166 ARK N996 TUSEP L988 OSROL |
| Aircraft | B738/M-SDE2E3FGHIRWXY/LB1 |
Departure
| Time | 2026-05-06 14:59 |
|---|---|
| Airport | Aktobe International Airport (UATT) |
Arrival
| Time | N/A |
|---|---|
| Airport | Nursultan Nazarbayev International Airport (UACC) |
| Time | Latitude | Longitude | Altitude | Speed | Heading |
|---|---|---|---|---|---|
| 2026-05-06 14:46 | 50.24831 | 57.20972 | 746 ft | 0 kts | 43° |
| 2026-05-06 14:51 | 50.24822 | 57.20959 | 746 ft | 2 kts | 43° |
| 2026-05-06 14:51 | 50.24812 | 57.20943 | 746 ft | 1 kts | 43° |
| 2026-05-06 14:51 | 50.24804 | 57.20933 | 746 ft | 2 kts | 34° |
| 2026-05-06 14:51 | 50.24791 | 57.20925 | 746 ft | 2 kts | 5° |
| 2026-05-06 14:52 | 50.24776 | 57.20927 | 746 ft | 2 kts | 339° |
| 2026-05-06 14:52 | 50.24766 | 57.20935 | 746 ft | 0 kts | 321° |
| 2026-05-06 14:52 | 50.24760 | 57.20943 | 746 ft | 0 kts | 318° |
| 2026-05-06 14:54 | 50.24774 | 57.20919 | 746 ft | 6 kts | 298° |
| 2026-05-06 14:55 | 50.24754 | 57.20848 | 746 ft | 9 kts | 227° |
| 2026-05-06 14:55 | 50.24699 | 57.20756 | 746 ft | 13 kts | 223° |
| 2026-05-06 14:55 | 50.24632 | 57.20658 | 746 ft | 13 kts | 224° |
| 2026-05-06 14:55 | 50.24644 | 57.20504 | 746 ft | 20 kts | 315° |
| 2026-05-06 14:56 | 50.24742 | 57.20353 | 746 ft | 19 kts | 315° |
| 2026-05-06 14:56 | 50.24835 | 57.20207 | 746 ft | 19 kts | 314° |
| 2026-05-06 14:56 | 50.24946 | 57.20037 | 746 ft | 24 kts | 315° |
| 2026-05-06 14:56 | 50.25080 | 57.19828 | 746 ft | 30 kts | 315° |
| 2026-05-06 14:57 | 50.25230 | 57.19597 | 746 ft | 29 kts | 316° |
| 2026-05-06 14:57 | 50.25363 | 57.19393 | 746 ft | 22 kts | 315° |
| 2026-05-06 14:57 | 50.25468 | 57.19231 | 746 ft | 20 kts | 314° |
| 2026-05-06 14:57 | 50.25549 | 57.19105 | 746 ft | 11 kts | 315° |
| 2026-05-06 14:58 | 50.25615 | 57.19082 | 746 ft | 10 kts | 12° |
| 2026-05-06 14:58 | 50.25652 | 57.19025 | 746 ft | 7 kts | 261° |
| 2026-05-06 14:58 | 50.25612 | 57.19008 | 746 ft | 8 kts | 138° |
| 2026-05-06 14:58 | 50.25602 | 57.19025 | 746 ft | 0 kts | 135° |
| 2026-05-06 14:59 | 50.25547 | 57.19107 | 746 ft | 43 kts | 135° |
| 2026-05-06 14:59 | 50.25134 | 57.19746 | 747 ft | 121 kts | 136° |
| 2026-05-06 14:59 | 50.24387 | 57.20902 | 947 ft | 168 kts | 138° |
| 2026-05-06 14:59 | 50.23586 | 57.22154 | 1843 ft | 169 kts | 139° |